OOKB METAR and TAF | Updated Today

OOKB METAR

Khasab Air Base

Observation time: 57 min. ago

OOKB 051850Z AUTO 26007KT 230V290 CAVOK 24/03 Q1015 NOSIG

Need help? Read our tutorial on how to read METARs or read the parsed version below.

Khasab Air Base (OOKB) METAR

  • Weather conditions on Sun, 05 Feb 2023 18:50:00 +0000 (57 min. ago):
  • Present conditions: Dry
  • Clouds: Clear skies
  • Visibility: Greater than 10 km
  • Wind: 260 degrees at 7 knots
  • Temperature: 24 celsius
  • Dew point: 3 celsius
  • Pressure: 1015 millibars
  • Remarks: None


Useful to know...